BWA224 TLPC-TBPB
Flight info
| Callsign | BWA224 |
|---|---|
| Flight time | 0h 32m |
| Altitude | 13000 |
| Route | TEDDY DCT BGI |
| Aircraft | AT76/M-SDFGIRY/S |
Departure
| Time | 2026-04-21 22:26 |
|---|---|
| Airport | George F. L. Charles Airport (TLPC) |
Arrival
| Time | 2026-04-21 22:58 |
|---|---|
| Airport | Grantley Adams International Airport (TBPB) |
| Time | Latitude | Longitude | Altitude | Speed | Heading |
|---|---|---|---|---|---|
| 2026-04-21 21:59 | 14.02024 | -60.99561 | 24 ft | 0 kts | 134° |
| 2026-04-21 22:19 | 14.02022 | -60.99559 | 24 ft | 1 kts | 131° |
| 2026-04-21 22:20 | 14.02015 | -60.99548 | 24 ft | 2 kts | 126° |
| 2026-04-21 22:20 | 14.02009 | -60.99540 | 24 ft | 1 kts | 125° |
| 2026-04-21 22:20 | 14.02000 | -60.99526 | 24 ft | 5 kts | 124° |
| 2026-04-21 22:20 | 14.01977 | -60.99476 | 23 ft | 9 kts | 107° |
| 2026-04-21 22:21 | 14.01973 | -60.99411 | 22 ft | 9 kts | 76° |
| 2026-04-21 22:21 | 14.01988 | -60.99351 | 22 ft | 9 kts | 75° |
| 2026-04-21 22:21 | 14.02005 | -60.99288 | 22 ft | 9 kts | 75° |
| 2026-04-21 22:21 | 14.02021 | -60.99228 | 24 ft | 8 kts | 74° |
| 2026-04-21 22:22 | 14.02034 | -60.99174 | 25 ft | 7 kts | 76° |
| 2026-04-21 22:22 | 14.02046 | -60.99127 | 25 ft | 7 kts | 76° |
| 2026-04-21 22:22 | 14.02056 | -60.99077 | 25 ft | 7 kts | 84° |
| 2026-04-21 22:22 | 14.02068 | -60.99022 | 26 ft | 9 kts | 76° |
| 2026-04-21 22:23 | 14.02086 | -60.98957 | 28 ft | 10 kts | 74° |
| 2026-04-21 22:23 | 14.02105 | -60.98880 | 28 ft | 12 kts | 76° |
| 2026-04-21 22:23 | 14.02127 | -60.98796 | 28 ft | 12 kts | 73° |
| 2026-04-21 22:23 | 14.02151 | -60.98712 | 29 ft | 12 kts | 73° |
| 2026-04-21 22:24 | 14.02178 | -60.98629 | 28 ft | 12 kts | 69° |
| 2026-04-21 22:24 | 14.02205 | -60.98542 | 25 ft | 13 kts | 77° |
| 2026-04-21 22:24 | 14.02234 | -60.98464 | 24 ft | 5 kts | 76° |
| 2026-04-21 22:24 | 14.02225 | -60.98462 | 24 ft | 2 kts | 221° |
| 2026-04-21 22:25 | 14.02216 | -60.98484 | 26 ft | 5 kts | 252° |
| 2026-04-21 22:25 | 14.02169 | -60.98659 | 28 ft | 56 kts | 253° |
| 2026-04-21 22:25 | 14.02014 | -60.99260 | 23 ft | 115 kts | 256° |
| 2026-04-21 22:25 | 14.01771 | -61.00154 | 308 ft | 132 kts | 255° |
| 2026-04-21 22:26 | 14.01532 | -61.01060 | 872 ft | 134 kts | 255° |
| 2026-04-21 22:26 | 14.01259 | -61.01942 | 1469 ft | 126 kts | 250° |
| 2026-04-21 22:26 | 14.00937 | -61.02826 | 1722 ft | 136 kts | 248° |
| 2026-04-21 22:26 | 14.00571 | -61.03706 | 2136 ft | 132 kts | 246° |
| 2026-04-21 22:27 | 14.00184 | -61.04672 | 2156 ft | 163 kts | 251° |
| 2026-04-21 22:27 | 13.99914 | -61.05867 | 2237 ft | 181 kts | 276° |
| 2026-04-21 22:27 | 14.00492 | -61.07007 | 2532 ft | 183 kts | 322° |
| 2026-04-21 22:27 | 14.01550 | -61.07699 | 2939 ft | 183 kts | 332° |
| 2026-04-21 22:28 | 14.02640 | -61.08379 | 3320 ft | 181 kts | 333° |
| 2026-04-21 22:28 | 14.03833 | -61.08785 | 3649 ft | 180 kts | 352° |
| 2026-04-21 22:28 | 14.05019 | -61.08538 | 3978 ft | 179 kts | 39° |
| 2026-04-21 22:28 | 14.05604 | -61.07442 | 4371 ft | 179 kts | 83° |
| 2026-04-21 22:29 | 14.05659 | -61.06162 | 4731 ft | 182 kts | 87° |
| 2026-04-21 22:29 | 14.05408 | -61.04903 | 5033 ft | 185 kts | 123° |
| 2026-04-21 22:29 | 14.04463 | -61.03983 | 5345 ft | 188 kts | 139° |
| 2026-04-21 22:29 | 14.03486 | -61.03085 | 5679 ft | 189 kts | 134° |
| 2026-04-21 22:30 | 14.02575 | -61.02100 | 6024 ft | 190 kts | 130° |
| 2026-04-21 22:30 | 14.01737 | -61.01063 | 6353 ft | 191 kts | 127° |
| 2026-04-21 22:30 | 14.00961 | -60.99943 | 6683 ft | 191 kts | 123° |
| 2026-04-21 22:30 | 14.00230 | -60.98781 | 7000 ft | 193 kts | 121° |
| 2026-04-21 22:31 | 13.99528 | -60.97600 | 7337 ft | 194 kts | 121° |
| 2026-04-21 22:31 | 13.98832 | -60.96419 | 7639 ft | 195 kts | 121° |
| 2026-04-21 22:31 | 13.98125 | -60.95215 | 7936 ft | 197 kts | 121° |
| 2026-04-21 22:31 | 13.97402 | -60.94011 | 8229 ft | 198 kts | 122° |
| 2026-04-21 22:32 | 13.96667 | -60.92804 | 8514 ft | 199 kts | 122° |
| 2026-04-21 22:32 | 13.95939 | -60.91610 | 8785 ft | 200 kts | 122° |
| 2026-04-21 22:32 | 13.95193 | -60.90392 | 9066 ft | 201 kts | 122° |
| 2026-04-21 22:32 | 13.94440 | -60.89163 | 9336 ft | 203 kts | 122° |
| 2026-04-21 22:33 | 13.93688 | -60.87931 | 9598 ft | 204 kts | 122° |
| 2026-04-21 22:33 | 13.92926 | -60.86690 | 9850 ft | 205 kts | 123° |
| 2026-04-21 22:33 | 13.92164 | -60.85443 | 10103 ft | 207 kts | 123° |
| 2026-04-21 22:33 | 13.91403 | -60.84200 | 10352 ft | 208 kts | 123° |
| 2026-04-21 22:34 | 13.90627 | -60.82937 | 10594 ft | 209 kts | 123° |
| 2026-04-21 22:34 | 13.89850 | -60.81667 | 10830 ft | 211 kts | 123° |
| 2026-04-21 22:34 | 13.89062 | -60.80382 | 11080 ft | 212 kts | 123° |
| 2026-04-21 22:34 | 13.88273 | -60.79095 | 11323 ft | 213 kts | 124° |
| 2026-04-21 22:35 | 13.87487 | -60.77815 | 11563 ft | 215 kts | 124° |
| 2026-04-21 22:35 | 13.86689 | -60.76514 | 11801 ft | 215 kts | 124° |
| 2026-04-21 22:35 | 13.85884 | -60.75202 | 12015 ft | 217 kts | 124° |
| 2026-04-21 22:35 | 13.85070 | -60.73876 | 12249 ft | 219 kts | 124° |
| 2026-04-21 22:36 | 13.83440 | -60.71216 | 12710 ft | 220 kts | 124° |
| 2026-04-21 22:36 | 13.82631 | -60.69896 | 12898 ft | 223 kts | 124° |
| 2026-04-21 22:36 | 13.81789 | -60.68527 | 12967 ft | 230 kts | 124° |
| 2026-04-21 22:37 | 13.80917 | -60.67107 | 12984 ft | 238 kts | 124° |
| 2026-04-21 22:37 | 13.80018 | -60.65640 | 12983 ft | 245 kts | 123° |
| 2026-04-21 22:37 | 13.79108 | -60.64151 | 12973 ft | 251 kts | 123° |
| 2026-04-21 22:37 | 13.78168 | -60.62610 | 12967 ft | 256 kts | 123° |
| 2026-04-21 22:38 | 13.77203 | -60.61049 | 12963 ft | 259 kts | 124° |
| 2026-04-21 22:38 | 13.76236 | -60.59474 | 12965 ft | 261 kts | 124° |
| 2026-04-21 22:38 | 13.75261 | -60.57887 | 12962 ft | 262 kts | 123° |
| 2026-04-21 22:38 | 13.74286 | -60.56293 | 12958 ft | 263 kts | 123° |
| 2026-04-21 22:39 | 13.73309 | -60.54702 | 12962 ft | 262 kts | 124° |
| 2026-04-21 22:39 | 13.72209 | -60.53234 | 12961 ft | 263 kts | 133° |
| 2026-04-21 22:39 | 13.70982 | -60.51841 | 12964 ft | 263 kts | 134° |
| 2026-04-21 22:39 | 13.69746 | -60.50447 | 12963 ft | 263 kts | 134° |
| 2026-04-21 22:40 | 13.68542 | -60.49026 | 12964 ft | 264 kts | 132° |
| 2026-04-21 22:40 | 13.67360 | -60.47579 | 12958 ft | 264 kts | 131° |
| 2026-04-21 22:40 | 13.66174 | -60.46130 | 12960 ft | 264 kts | 132° |
| 2026-04-21 22:40 | 13.65006 | -60.44708 | 12963 ft | 264 kts | 131° |
| 2026-04-21 22:41 | 13.63821 | -60.43259 | 12963 ft | 264 kts | 132° |
| 2026-04-21 22:41 | 13.62637 | -60.41815 | 12959 ft | 264 kts | 132° |
| 2026-04-21 22:41 | 13.61451 | -60.40369 | 12961 ft | 264 kts | 132° |
| 2026-04-21 22:41 | 13.60267 | -60.38924 | 12964 ft | 264 kts | 132° |
| 2026-04-21 22:42 | 13.59084 | -60.37481 | 12959 ft | 263 kts | 132° |
| 2026-04-21 22:42 | 13.57913 | -60.36056 | 12965 ft | 263 kts | 132° |
| 2026-04-21 22:42 | 13.56726 | -60.34610 | 12959 ft | 264 kts | 131° |
| 2026-04-21 22:42 | 13.55553 | -60.33180 | 12959 ft | 264 kts | 132° |
| 2026-04-21 22:43 | 13.54371 | -60.31740 | 12962 ft | 264 kts | 132° |
| 2026-04-21 22:43 | 13.53185 | -60.30297 | 12959 ft | 264 kts | 132° |
| 2026-04-21 22:43 | 13.52000 | -60.28852 | 12964 ft | 264 kts | 131° |
| 2026-04-21 22:43 | 13.50815 | -60.27406 | 12962 ft | 264 kts | 132° |
| 2026-04-21 22:44 | 13.49631 | -60.25965 | 12961 ft | 263 kts | 132° |
| 2026-04-21 22:44 | 13.48446 | -60.24524 | 12959 ft | 264 kts | 132° |
| 2026-04-21 22:44 | 13.47277 | -60.23103 | 12962 ft | 264 kts | 132° |
| 2026-04-21 22:44 | 13.46091 | -60.21656 | 12954 ft | 264 kts | 132° |
| 2026-04-21 22:45 | 13.44905 | -60.20212 | 12955 ft | 264 kts | 132° |
| 2026-04-21 22:45 | 13.43719 | -60.18771 | 12955 ft | 264 kts | 132° |
| 2026-04-21 22:45 | 13.42532 | -60.17327 | 12950 ft | 264 kts | 132° |
| 2026-04-21 22:45 | 13.41362 | -60.15905 | 12957 ft | 264 kts | 131° |
| 2026-04-21 22:46 | 13.40179 | -60.14463 | 12956 ft | 264 kts | 132° |
| 2026-04-21 22:46 | 13.38997 | -60.13027 | 12958 ft | 264 kts | 132° |
| 2026-04-21 22:46 | 13.37806 | -60.11580 | 12953 ft | 264 kts | 132° |
| 2026-04-21 22:46 | 13.36621 | -60.10139 | 12953 ft | 264 kts | 132° |
| 2026-04-21 22:47 | 13.35430 | -60.08694 | 12950 ft | 264 kts | 132° |
| 2026-04-21 22:47 | 13.34246 | -60.07259 | 12953 ft | 264 kts | 132° |
| 2026-04-21 22:47 | 13.33039 | -60.05803 | 12707 ft | 273 kts | 132° |
| 2026-04-21 22:47 | 13.31795 | -60.04311 | 12356 ft | 284 kts | 132° |
| 2026-04-21 22:48 | 13.30498 | -60.02758 | 11977 ft | 287 kts | 133° |
| 2026-04-21 22:48 | 13.29196 | -60.01198 | 11603 ft | 287 kts | 132° |
| 2026-04-21 22:48 | 13.27893 | -59.99642 | 11226 ft | 286 kts | 132° |
| 2026-04-21 22:48 | 13.26595 | -59.98093 | 10857 ft | 286 kts | 132° |
| 2026-04-21 22:49 | 13.25290 | -59.96546 | 10473 ft | 285 kts | 132° |
| 2026-04-21 22:49 | 13.23985 | -59.95012 | 10095 ft | 285 kts | 132° |
| 2026-04-21 22:49 | 13.22694 | -59.93507 | 9723 ft | 283 kts | 132° |
| 2026-04-21 22:49 | 13.21386 | -59.91996 | 9346 ft | 282 kts | 132° |
| 2026-04-21 22:50 | 13.20075 | -59.90496 | 8971 ft | 280 kts | 132° |
| 2026-04-21 22:50 | 13.19210 | -59.89513 | 8717 ft | 279 kts | 132° |
| 2026-04-21 22:50 | 13.17904 | -59.88037 | 8343 ft | 278 kts | 132° |
| 2026-04-21 22:50 | 13.16605 | -59.86574 | 7965 ft | 277 kts | 132° |
| 2026-04-21 22:51 | 13.14889 | -59.84649 | 7464 ft | 275 kts | 132° |
| 2026-04-21 22:51 | 13.14017 | -59.83672 | 7213 ft | 274 kts | 132° |
| 2026-04-21 22:51 | 13.12726 | -59.82231 | 6836 ft | 273 kts | 132° |
| 2026-04-21 22:51 | 13.11445 | -59.80801 | 6460 ft | 271 kts | 132° |
| 2026-04-21 22:52 | 13.10182 | -59.79396 | 6085 ft | 270 kts | 132° |
| 2026-04-21 22:52 | 13.08906 | -59.77980 | 5710 ft | 269 kts | 132° |
| 2026-04-21 22:52 | 13.07635 | -59.76571 | 5339 ft | 269 kts | 132° |
| 2026-04-21 22:52 | 13.06493 | -59.75080 | 4953 ft | 262 kts | 119° |
| 2026-04-21 22:53 | 13.05602 | -59.73455 | 4581 ft | 262 kts | 118° |
| 2026-04-21 22:53 | 13.04675 | -59.71846 | 4205 ft | 261 kts | 120° |
| 2026-04-21 22:53 | 13.03695 | -59.70304 | 3829 ft | 260 kts | 121° |
| 2026-04-21 22:53 | 13.02924 | -59.68650 | 3449 ft | 256 kts | 100° |
| 2026-04-21 22:54 | 13.02997 | -59.66857 | 3121 ft | 248 kts | 78° |
| 2026-04-21 22:54 | 13.03406 | -59.65184 | 2824 ft | 237 kts | 73° |
| 2026-04-21 22:54 | 13.03859 | -59.63596 | 2519 ft | 224 kts | 73° |
| 2026-04-21 22:54 | 13.04267 | -59.62167 | 2263 ft | 195 kts | 73° |
| 2026-04-21 22:55 | 13.04617 | -59.60909 | 1962 ft | 177 kts | 73° |
| 2026-04-21 22:55 | 13.04951 | -59.59762 | 1817 ft | 156 kts | 74° |
| 2026-04-21 22:55 | 13.05207 | -59.58709 | 1646 ft | 152 kts | 76° |
| 2026-04-21 22:55 | 13.05440 | -59.57644 | 1413 ft | 155 kts | 76° |
| 2026-04-21 22:56 | 13.05694 | -59.56570 | 1155 ft | 152 kts | 76° |
| 2026-04-21 22:56 | 13.05950 | -59.55536 | 1070 ft | 143 kts | 77° |
| 2026-04-21 22:56 | 13.06147 | -59.54546 | 955 ft | 140 kts | 79° |
| 2026-04-21 22:56 | 13.06400 | -59.53588 | 806 ft | 136 kts | 73° |
| 2026-04-21 22:57 | 13.06624 | -59.52734 | 685 ft | 120 kts | 79° |
| 2026-04-21 22:57 | 13.06806 | -59.51915 | 501 ft | 116 kts | 77° |
| 2026-04-21 22:57 | 13.07005 | -59.51114 | 296 ft | 115 kts | 76° |
| 2026-04-21 22:57 | 13.07192 | -59.50330 | 177 ft | 109 kts | 77° |
| 2026-04-21 22:58 | 13.07325 | -59.49778 | 173 ft | 51 kts | 76° |
| 2026-04-21 22:58 | 13.07401 | -59.49470 | 172 ft | 39 kts | 81° |
| 2026-04-21 22:58 | 13.07454 | -59.49235 | 172 ft | 30 kts | 73° |
| 2026-04-21 22:58 | 13.07500 | -59.49060 | 172 ft | 21 kts | 69° |
| 2026-04-21 22:59 | 13.07571 | -59.48955 | 172 ft | 15 kts | 47° |
| 2026-04-21 22:59 | 13.07636 | -59.48889 | 173 ft | 11 kts | 47° |
| 2026-04-21 22:59 | 13.07686 | -59.48840 | 174 ft | 9 kts | 38° |
| 2026-04-21 22:59 | 13.07735 | -59.48835 | 174 ft | 4 kts | 322° |
| 2026-04-21 23:00 | 13.07729 | -59.48859 | 174 ft | 7 kts | 243° |
| 2026-04-21 23:00 | 13.07726 | -59.48909 | 174 ft | 7 kts | 326° |
| 2026-04-21 23:00 | 13.07767 | -59.48921 | 174 ft | 5 kts | 345° |
| 2026-04-21 23:00 | 13.07804 | -59.48930 | 174 ft | 6 kts | 346° |
| 2026-04-21 23:01 | 13.07835 | -59.48939 | 174 ft | 1 kts | 347° |
| 2026-04-21 23:01 | 13.07841 | -59.48940 | 174 ft | 0 kts | 348° |